Latest Weather Observations for Minlaton Airport

IDS60801

Issued at 3:01 pm CST Tuesday 28 June 2016 (issued every 30 minutes, with the page automatically refreshed every 10 minutes)

About weather observations | Map of weather stations | Latest weather observations for SA | Other Formats
Station Details ID: 022031 Name: MINLATON AERO Lat: -34.75 Lon: 137.53 Height: 32.0 m
Data from the previous 72 hours. | See also: Recent months at Minlaton Airport
Date/Time
CST
Temp
°C
App
Temp
°C
Dew
Point
°C
Rel
Hum
%
Delta-T
°C
Wind Press
QNH
hPa
Press
MSL
hPa
Rain since
9am
mm
Dir  Spd
km/h
Gust
km/h
Spd
kts
Gust
kts
28/03:00pm 15.0 10.3 9.4 69 2.9 NNW 24 32 13 17 1025.4 1025.5 0.0
28/02:30pm 14.9 9.7 8.8 67 3.1 NNW 26 32 14 17 1025.5 1025.6 0.0
28/02:00pm 14.9 9.4 9.1 68 3.0 NNW 28 32 15 17 1025.7 1025.8 0.0
28/01:30pm 14.8 9.4 9.6 71 2.7 NW 28 35 15 19 1026.0 1026.1 0.0
28/01:00pm 14.9 9.6 9.9 72 2.6 NNW 28 35 15 19 1026.2 1026.3 0.0
28/12:30pm 14.8 9.6 10.2 74 2.4 NNW 28 33 15 18 1026.3 1026.4 0.0
28/12:00pm 14.8 9.2 10.2 74 2.4 NW 30 35 16 19 1026.6 1026.7 0.0
28/11:30am 14.6 9.2 10.8 78 2.0 NW 30 33 16 18 1026.9 1027.0 0.0
28/11:00am 14.5 10.7 11.1 80 1.8 NNW 22 32 12 17 1027.1 1027.2 0.0
28/10:30am 14.4 9.9 11.4 82 1.6 NW 26 33 14 18 1027.0 1027.1 0.0
28/10:00am 13.3 9.9 11.2 87 1.1 NNW 20 32 11 17 1026.9 1027.0 0.0
28/09:30am 12.6 9.7 11.0 90 0.8 N 17 20 9 11 1026.6 1026.7 0.0
28/09:00am 10.4 7.5 9.5 94 0.4 N 15 19 8 10 1026.3 1026.4 0.2
28/08:30am 8.4 5.0 7.6 95 0.4 N 15 19 8 10 1026.0 1026.1 0.2
28/08:00am 7.6 3.7 6.9 95 0.3 N 17 19 9 10 1025.7 1025.8 0.2
28/07:30am 7.5 3.5 6.8 95 0.3 N 17 19 9 10 1025.5 1025.6 0.2
28/07:00am 7.7 3.8 7.0 95 0.3 N 17 19 9 10 1025.3 1025.4 0.2
28/06:30am 7.8 3.9 7.1 95 0.3 N 17 20 9 11 1024.9 1025.0 0.2
28/06:00am 8.0 4.1 7.2 95 0.4 NNE 17 20 9 11 1024.4 1024.5 0.2
28/05:30am 7.9 4.0 7.1 95 0.4 N 17 19 9 10 1024.3 1024.4 0.2
28/05:00am 7.8 3.9 7.1 95 0.3 N 17 19 9 10 1024.0 1024.1 0.2
28/04:30am 7.9 4.0 7.1 95 0.4 N 17 19 9 10 1023.8 1023.9 0.0
28/04:00am 8.1 4.2 7.3 95 0.4 N 17 20 9 11 1023.9 1024.0 0.0
28/03:30am 8.1 4.2 7.2 94 0.4 NNE 17 19 9 10 1023.8 1023.9 0.0
28/03:00am 7.7 4.1 6.6 93 0.5 NNE 15 17 8 9 1024.0 1024.1 0.0
28/02:30am 8.9 5.6 8.0 94 0.4 N 15 17 8 9 1023.9 1024.0 0.0
28/02:00am 8.7 5.7 7.8 94 0.4 N 13 17 7 9 1023.8 1023.9 0.0
28/01:30am 8.3 5.5 7.1 92 0.6 N 11 15 6 8 1023.9 1024.0 0.0
28/01:00am 8.3 5.6 7.4 94 0.4 N 11 15 6 8 1024.0 1024.1 0.0
28/12:30am 7.9 4.7 7.0 94 0.4 N 13 15 7 8 1024.1 1024.2 0.0
28/12:00am 8.1 5.0 7.3 95 0.4 NNW 13 15 7 8 1024.1 1024.2 0.0
 
Date/Time
CST
Temp
°C
App
Temp
°C
Dew
Point
°C
Rel
Hum
%
Delta-T
°C
Wind Press
QNH
hPa
Press
MSL
hPa
Rain since
9am
mm
Dir  Spd
km/h
Gust
km/h
Spd
kts
Gust
kts
27/11:30pm 7.7 4.5 6.8 94 0.4 N 13 15 7 8 1024.0 1024.1 0.0
27/11:00pm 7.5 3.9 6.6 94 0.4 N 15 15 8 8 1023.9 1024.0 0.0
27/10:30pm 7.9 4.4 7.0 94 0.4 N 15 17 8 9 1023.9 1024.0 0.0
27/10:00pm 8.0 4.5 7.1 94 0.4 N 15 17 8 9 1023.8 1023.9 0.0
27/09:30pm 7.6 3.9 6.5 93 0.5 N 15 15 8 8 1023.8 1023.9 0.0
27/09:00pm 7.8 4.2 6.7 93 0.5 NNE 15 17 8 9 1023.7 1023.8 0.0
27/08:30pm 8.1 4.2 6.9 92 0.6 N 17 17 9 9 1023.7 1023.8 0.0
27/08:00pm 8.6 5.9 7.4 92 0.6 NNW 11 13 6 7 1023.3 1023.4 0.0
27/07:30pm 9.1 6.1 7.5 90 0.8 NNW 13 17 7 9 1023.1 1023.2 0.0
27/07:00pm 9.5 6.5 7.6 88 0.9 NW 13 15 7 8 1022.9 1023.0 0.0
27/06:30pm 9.8 6.3 7.4 85 1.1 NW 15 15 8 8 1022.7 1022.8 0.0
27/06:00pm 11.0 8.2 8.6 85 1.2 WNW 13 15 7 8 1022.4 1022.5 0.0
27/05:30pm 11.5 8.8 8.9 84 1.3 WNW 13 15 7 8 1022.1 1022.1 0.0
27/05:00pm 13.0 9.9 8.7 75 2.2 WNW 15 20 8 11 1021.9 1021.9 0.0
27/04:30pm 14.1 10.6 8.9 71 2.6 W 17 20 9 11 1021.7 1021.7 0.0
27/04:00pm 14.4 10.0 8.8 69 2.8 W 22 26 12 14 1021.5 1021.5 0.0
27/03:30pm 14.9 10.7 8.4 65 3.3 W 20 28 11 15 1021.4 1021.4 0.0
27/03:00pm 15.0 10.5 7.1 59 3.9 W 20 26 11 14 1021.1 1021.1 0.0
27/02:30pm 15.2 10.3 8.4 64 3.4 W 24 28 13 15 1021.2 1021.2 0.0
27/02:00pm 15.4 10.7 7.7 60 3.8 W 22 28 12 15 1021.1 1021.1 0.0
27/01:30pm 14.9 11.1 9.1 68 3.0 WNW 19 24 10 13 1021.4 1021.4 0.0
27/01:00pm 14.2 11.0 8.6 69 2.8 NW 15 20 8 11 1021.5 1021.5 0.0
27/12:30pm 14.4 10.9 8.6 68 2.9 NW 17 24 9 13 1021.8 1021.8 0.0
27/12:00pm 14.0 11.2 8.6 70 2.7 NW 13 17 7 9 1022.1 1022.1 0.0
27/11:30am 13.7 10.5 7.0 64 3.2 WNW 13 17 7 9 1022.2 1022.2 0.0
27/11:00am 14.1 12.3 8.1 67 3.0 W 7 13 4 7 1022.2 1022.2 0.0
27/10:30am 14.0 13.8 9.2 73 2.4 CALM 0 6 0 3 1022.1 1022.1 0.0
27/10:00am 12.6 12.2 8.3 75 2.1 CALM 0 0 0 0 1021.7 1021.7 0.0
27/09:30am 11.4 10.9 7.9 79 1.7 CALM 0 0 0 0 1021.4 1021.4 0.0
27/09:00am 10.0 9.6 8.3 89 0.8 CALM 0 0 0 0 1021.1 1021.1 2.6
27/08:30am 8.8 6.9 7.6 92 0.6 SSE 7 7 4 4 1020.9 1020.9 2.6
27/08:00am 6.6 4.3 5.6 93 0.4 SSE 7 9 4 5 1020.6 1020.6 2.6
27/07:30am 6.6 4.3 5.7 94 0.4 S 7 9 4 5 1020.3 1020.3 2.6
27/07:00am 5.3 2.3 4.1 92 0.5 S 9 9 5 5 1019.9 1019.9 2.6
27/06:30am 6.9 4.2 5.7 92 0.5 S 9 11 5 6 1019.3 1019.3 2.6
27/06:00am 7.7 5.2 6.5 92 0.5 S 9 11 5 6 1018.9 1018.9 2.6
27/05:30am 8.7 6.5 7.8 94 0.4 SSW 9 11 5 6 1018.7 1018.7 2.6
27/05:00am 9.0 6.9 8.1 94 0.4 S 9 11 5 6 1018.2 1018.2 2.6
27/04:30am 9.5 7.5 8.6 94 0.4 SSW 9 11 5 6 1018.0 1018.0 2.6
27/04:00am 9.8 7.4 8.7 93 0.5 SW 11 11 6 6 1017.7 1017.7 2.6
27/03:30am 10.4 7.8 9.3 93 0.5 SW 13 17 7 9 1017.6 1017.6 2.6
27/03:00am 10.3 6.9 9.2 93 0.5 SW 17 26 9 14 1017.5 1017.5 2.6
27/02:30am 9.9 8.4 9.0 94 0.4 SW 7 13 4 7 1017.4 1017.4 2.6
27/02:00am 9.6 8.1 8.5 93 0.5 WSW 6 7 3 4 1017.1 1017.1 2.6
27/01:30am 9.8 8.2 8.7 93 0.5 WNW 7 9 4 5 1016.8 1016.8 2.6
27/01:00am 10.2 8.3 9.1 93 0.5 WSW 9 13 5 7 1016.9 1016.9 2.6
27/12:30am 11.0 8.2 9.9 93 0.6 SW 15 20 8 11 1016.8 1016.8 2.2
27/12:00am 12.3 8.5 9.9 85 1.2 W 20 26 11 14 1016.7 1016.7 1.8
 
Date/Time
CST
Temp
°C
App
Temp
°C
Dew
Point
°C
Rel
Hum
%
Delta-T
°C
Wind Press
QNH
hPa
Press
MSL
hPa
Rain since
9am
mm
Dir  Spd
km/h
Gust
km/h
Spd
kts
Gust
kts
26/11:30pm 12.1 8.5 9.8 86 1.2 WNW 19 20 10 11 1016.7 1016.7 1.8
26/11:00pm 11.9 8.2 9.5 85 1.2 WNW 19 24 10 13 1016.6 1016.6 1.8
26/10:30pm 11.9 8.1 8.9 82 1.5 WNW 19 24 10 13 1016.6 1016.6 1.8
26/10:00pm 11.2 8.5 8.8 85 1.2 NW 13 17 7 9 1016.6 1016.6 1.8
26/09:30pm 10.8 7.6 8.4 85 1.2 WNW 15 19 8 10 1016.6 1016.6 1.8
26/09:00pm 10.9 7.3 8.3 84 1.3 NW 17 19 9 10 1016.4 1016.4 1.8
26/08:30pm 11.9 7.8 8.0 77 1.9 NW 19 24 10 13 1016.5 1016.5 1.8
26/08:00pm 12.4 8.5 6.9 69 2.6 NW 17 20 9 11 1016.3 1016.3 1.8
26/07:30pm 11.7 8.2 7.0 73 2.2 NW 15 19 8 10 1016.2 1016.2 1.8
26/07:00pm 12.3 8.6 6.1 66 2.9 NW 15 20 8 11 1016.0 1016.0 1.8
26/06:30pm 12.1 8.6 7.2 72 2.4 NW 15 20 8 11 1015.9 1015.9 1.8
26/06:00pm 11.8 8.3 7.3 74 2.2 WNW 15 17 8 9 1015.8 1015.8 1.8
26/05:30pm 11.5 8.4 7.2 75 2.1 NW 13 15 7 8 1015.4 1015.4 1.8
26/05:00pm 12.1 8.6 7.4 73 2.3 WNW 15 20 8 11 1015.2 1015.2 1.8
26/04:30pm 12.6 8.2 6.6 67 2.9 NW 19 22 10 12 1015.1 1015.1 1.8
26/04:00pm 12.3 8.5 7.4 72 2.4 NW 17 20 9 11 1015.0 1015.0 1.8
26/03:30pm 12.6 8.1 7.1 69 2.7 NW 20 24 11 13 1015.0 1015.0 1.8
26/03:00pm 13.0 8.2 7.5 69 2.7 WNW 22 26 12 14 1015.1 1015.1 1.8
26/02:30pm 12.8 7.9 6.8 67 2.9 NW 22 28 12 15 1015.2 1015.2 1.8
26/02:00pm 12.6 7.3 6.9 68 2.7 NW 24 32 13 17 1015.4 1015.4 1.8
26/01:30pm 13.3 6.9 7.1 66 3.0 NW 30 35 16 19 1015.5 1015.5 1.8
26/01:00pm 13.1 7.1 6.9 66 3.0 NNW 28 35 15 19 1015.7 1015.7 1.8
26/12:30pm 13.2 6.7 6.5 64 3.2 NNW 30 37 16 20 1016.0 1016.0 1.8
26/12:00pm 12.7 6.2 6.7 67 2.9 NNW 30 37 16 20 1016.5 1016.5 1.8
26/11:30am 13.9 8.1 7.9 67 3.0 NNW 28 35 15 19 1016.9 1016.9 1.8
26/11:00am 13.1 7.4 6.9 66 3.0 NNW 26 32 14 17 1017.2 1017.2 1.8
26/10:30am 12.2 8.8 9.0 81 1.6 N 17 20 9 11 1017.7 1017.7 1.8
26/10:00am 11.5 9.6 9.1 85 1.2 NE 9 13 5 7 1017.8 1017.8 1.8
26/09:30am 9.1 6.9 7.7 91 0.7 NW 9 13 5 7 1018.1 1018.1 1.6
26/09:00am 9.0 4.6 6.4 84 1.2 N 19 30 10 16 1017.9 1017.9 3.0
26/08:30am 8.6 4.7 6.9 89 0.8 WNW 17 24 9 13 1018.3 1018.3 2.0
26/08:00am 8.8 5.1 6.4 85 1.1 NNW 15 20 8 11 1017.9 1017.9 0.4
26/07:39am 9.0 4.8 5.9 81 1.4 N 17 32 9 17 1017.7 1017.7 0.0
26/07:30am 9.0 6.4 5.9 81 1.4 N 9 17 5 9 1017.6 1017.6 0.0
26/07:00am 9.0 4.4 5.7 80 1.5 NNE 19 20 10 11 1017.5 1017.5 0.0
26/06:30am 9.0 4.8 5.6 79 1.5 NNE 17 19 9 10 1017.2 1017.2 0.0
26/06:00am 8.8 4.6 5.5 80 1.5 NE 17 20 9 11 1017.1 1017.1 0.0
26/05:30am 9.6 5.3 5.4 75 1.9 NNE 17 22 9 12 1017.1 1017.1 0.0
26/05:00am 10.2 7.0 5.0 70 2.4 N 11 15 6 8 1017.3 1017.3 0.0
26/04:30am 9.8 5.9 5.4 74 2.0 N 15 20 8 11 1017.7 1017.7 0.0
26/04:00am 9.9 6.0 5.5 74 2.0 N 15 20 8 11 1018.0 1018.0 0.0
26/03:30am 9.8 6.6 5.2 73 2.1 N 11 19 6 10 1018.2 1018.2 0.0
26/03:00am 9.5 6.1 5.7 77 1.7 N 13 17 7 9 1018.4 1018.4 0.0
26/02:30am 9.3 5.9 5.9 79 1.6 NNE 13 19 7 10 1018.6 1018.6 0.0
26/02:00am 9.3 5.5 6.0 80 1.5 NNE 15 17 8 9 1018.9 1018.9 0.0
26/01:30am 9.4 5.3 6.1 80 1.5 NNE 17 20 9 11 1019.1 1019.1 0.0
26/01:00am 9.3 5.1 5.9 79 1.6 NNE 17 20 9 11 1019.2 1019.2 0.0
26/12:30am 9.2 5.4 5.8 79 1.5 NNE 15 17 8 9 1019.4 1019.4 0.0
26/12:00am 9.6 5.8 5.6 76 1.8 NNE 15 17 8 9 1019.3 1019.3 0.0
 
Date/Time
CST
Temp
°C
App
Temp
°C
Dew
Point
°C
Rel
Hum
%
Delta-T
°C
Wind Press
QNH
hPa
Press
MSL
hPa
Rain since
9am
mm
Dir  Spd
km/h
Gust
km/h
Spd
kts
Gust
kts
25/11:30pm 9.6 5.8 5.6 76 1.8 N 15 17 8 9 1019.8 1019.8 0.0
25/11:00pm 9.9 6.0 5.5 74 2.0 NNE 15 19 8 10 1019.9 1019.9 0.0
25/10:30pm 9.8 5.5 5.4 74 2.0 NNE 17 20 9 11 1019.9 1019.9 0.0
25/10:00pm 9.9 6.0 5.5 74 2.0 NNE 15 17 8 9 1020.4 1020.4 0.0
25/09:30pm 10.3 6.4 5.3 71 2.3 NNE 15 19 8 10 1020.6 1020.6 0.0
25/09:00pm 10.3 6.3 5.1 70 2.4 NNE 15 22 8 12 1020.4 1020.4 0.0
25/08:30pm 10.1 6.2 5.3 72 2.2 NNE 15 17 8 9 1020.4 1020.4 0.0
25/08:00pm 10.0 6.2 5.8 75 1.9 NNE 15 20 8 11 1020.9 1020.9 0.0
25/07:30pm 10.0 6.3 6.2 77 1.8 NNE 15 17 8 9 1021.0 1021.0 0.0
25/07:00pm 9.8 6.5 6.5 80 1.5 NNE 13 15 7 8 1021.4 1021.4 0.0
25/06:30pm 9.9 6.3 6.8 81 1.5 N 15 17 8 9 1021.4 1021.4 0.0
25/06:00pm 10.1 6.9 7.0 81 1.5 NNE 13 15 7 8 1021.1 1021.1 0.0
25/05:30pm 10.4 7.1 6.4 76 1.9 N 13 17 7 9 1021.0 1021.0 0.0
25/05:00pm 11.0 7.2 5.7 70 2.5 N 15 19 8 10 1021.2 1021.2 0.0
25/04:30pm 11.4 7.7 6.1 70 2.5 NNW 15 19 8 10 1021.3 1021.3 0.0
25/04:00pm 11.7 8.1 6.8 72 2.3 N 15 19 8 10 1021.3 1021.3 0.0
25/03:30pm 12.1 8.0 7.8 75 2.1 NNW 19 26 10 14 1021.5 1021.5 0.0

Other Formats:

Comma delimited format used in spreadsheet applications
http://www.bom.gov.au/fwo/IDS60801/IDS60801.95659.axf

JavaScript Object Notation format (JSON) in row-major order
http://www.bom.gov.au/fwo/IDS60801/IDS60801.95659.json